createdAt,value
2019-02-14T00:01:01.831Z,73.90
2019-02-14T00:03:30.020Z,74.50
2019-02-14T00:06:10.453Z,74.20
2019-02-14T00:08:58.032Z,75.00
2019-02-14T00:11:38.754Z,73.80
2019-02-14T00:14:26.126Z,74.80
2019-02-14T00:16:54.005Z,74.70
2019-02-14T00:19:21.890Z,75.40
2019-02-14T00:22:03.722Z,76.10
2019-02-14T00:24:31.717Z,76.40
2019-02-14T00:26:59.621Z,77.30
2019-02-14T00:29:27.491Z,78.00
2019-02-14T00:31:55.484Z,75.90
2019-02-14T00:34:42.861Z,76.00
2019-02-14T00:37:23.581Z,76.60
2019-02-14T00:40:04.864Z,77.20
2019-02-14T00:42:52.285Z,76.90
2019-02-14T00:45:34.713Z,76.80
2019-02-14T00:48:22.329Z,75.80
2019-02-14T00:51:00.921Z,74.00
2019-02-14T00:53:48.586Z,72.10
2019-02-14T00:56:29.213Z,71.50
2019-02-14T00:59:16.925Z,71.00
2019-02-14T01:01:57.479Z,71.60
2019-02-14T01:05:06.646Z,72.10
2019-02-14T01:07:46.702Z,72.00
2019-02-14T01:10:34.255Z,72.00
2019-02-14T01:13:13.170Z,72.10
2019-02-14T01:16:00.579Z,71.90
2019-02-14T01:18:41.249Z,71.70
2019-02-14T01:21:21.530Z,71.60
2019-02-14T01:24:02.839Z,72.10
2019-02-14T01:26:43.577Z,71.80
2019-02-14T01:29:11.493Z,72.70
2019-02-14T01:31:58.876Z,72.60
2019-02-14T01:34:26.824Z,72.90
2019-02-14T01:40:15.021Z,72.60
2019-02-14T01:45:49.917Z,73.20
2019-02-14T01:48:37.289Z,72.60
2019-02-14T01:51:17.905Z,72.40
2019-02-14T01:54:05.462Z,72.70
2019-02-14T01:56:46.448Z,73.10
2019-02-14T01:59:28.418Z,73.30
2019-02-14T02:02:15.838Z,73.30
2019-02-14T02:04:56.329Z,74.00
2019-02-14T02:07:43.748Z,75.10
2019-02-14T02:10:25.612Z,75.80
2019-02-14T02:12:53.873Z,77.20
2019-02-14T02:15:21.777Z,77.50
2019-02-14T02:18:09.133Z,77.50
2019-02-14T02:20:50.010Z,77.80
2019-02-14T02:23:31.122Z,78.70
2019-02-14T02:26:18.483Z,78.80
2019-02-14T02:28:46.421Z,79.10
2019-02-14T02:31:15.298Z,77.90
2019-02-14T02:34:02.686Z,77.30
2019-02-14T02:36:50.200Z,77.30
2019-02-14T02:39:30.594Z,77.60
2019-02-14T02:42:18.151Z,78.60
2019-02-14T02:44:59.316Z,77.60
2019-02-14T02:47:46.679Z,77.20
2019-02-14T02:50:27.347Z,76.70
2019-02-14T02:52:55.194Z,77.20
2019-02-14T02:55:44.360Z,77.10
2019-02-14T02:58:12.282Z,76.80
2019-02-14T03:00:40.183Z,77.50
2019-02-14T03:03:08.112Z,77.40
2019-02-14T03:05:51.029Z,77.50
2019-02-14T03:08:18.856Z,76.80
2019-02-14T03:10:46.717Z,76.70
2019-02-14T03:13:34.341Z,77.40
2019-02-14T03:16:15.405Z,77.30
2019-02-14T03:19:02.784Z,76.40
2019-02-14T03:21:43.632Z,75.90
2019-02-14T03:24:31.043Z,76.30
2019-02-14T03:26:58.957Z,76.40
2019-02-14T03:29:46.299Z,76.00
2019-02-14T03:32:26.780Z,76.30
2019-02-14T03:35:15.173Z,77.10
2019-02-14T03:37:55.199Z,77.40
2019-02-14T03:40:43.214Z,77.50
2019-02-14T03:43:23.448Z,77.20
2019-02-14T03:46:10.786Z,77.60
2019-02-14T03:48:38.732Z,77.70
2019-02-14T03:51:26.123Z,77.50
2019-02-14T03:54:10.362Z,77.30
2019-02-14T03:56:38.295Z,78.10
2019-02-14T03:59:18.421Z,78.30
2019-02-14T04:02:05.795Z,78.80
2019-02-14T04:04:47.924Z,78.00
2019-02-14T04:07:15.767Z,79.10
2019-02-14T04:09:43.632Z,78.40
2019-02-14T04:12:25.605Z,79.50
2019-02-14T04:14:53.473Z,80.50
2019-02-14T04:17:21.365Z,78.90
2019-02-14T04:20:11.056Z,78.60
2019-02-14T04:22:51.969Z,79.10
2019-02-14T04:25:39.349Z,78.50
2019-02-14T04:28:20.067Z,79.90
2019-02-14T04:31:00.149Z,79.40
2019-02-14T04:33:48.445Z,79.70
2019-02-14T04:36:36.263Z,80.10
2019-02-14T04:39:16.760Z,80.00
2019-02-14T04:42:04.161Z,80.20
2019-02-14T04:44:45.056Z,80.00
2019-02-14T04:47:25.768Z,81.90
2019-02-14T04:50:14.895Z,80.80
2019-02-14T04:52:54.929Z,79.60
2019-02-14T04:55:42.288Z,79.10
2019-02-14T04:58:22.845Z,78.10
2019-02-14T05:01:10.481Z,78.70
2019-02-14T05:03:51.451Z,76.90
2019-02-14T05:06:34.473Z,73.30
2019-02-14T05:09:22.045Z,74.90
2019-02-14T05:12:02.787Z,75.80
2019-02-14T05:14:50.665Z,77.20
2019-02-14T05:17:33.782Z,77.30
2019-02-14T05:20:16.578Z,77.80
2019-02-14T05:23:03.927Z,78.40
2019-02-14T05:25:44.914Z,79.20
2019-02-14T05:28:32.460Z,79.10
2019-02-14T05:31:13.239Z,78.70
2019-02-14T05:34:00.868Z,77.70
2019-02-14T05:36:41.999Z,77.40
2019-02-14T05:39:30.358Z,76.40
2019-02-14T05:42:11.606Z,77.30
2019-02-14T05:45:01.842Z,77.60
2019-02-14T05:47:42.285Z,78.00
2019-02-14T05:50:30.066Z,78.10
2019-02-14T05:53:10.438Z,77.80
2019-02-14T05:55:57.311Z,78.30
2019-02-14T05:58:37.772Z,78.50
2019-02-14T06:01:25.227Z,79.10
2019-02-14T06:04:07.869Z,79.70
2019-02-14T06:07:00.921Z,80.60
2019-02-14T06:09:57.922Z,79.30
2019-02-14T06:12:46.971Z,78.20
2019-02-14T06:15:32.926Z,77.60
2019-02-14T06:18:20.984Z,76.10
2019-02-14T06:21:01.740Z,78.00
2019-02-14T06:23:49.498Z,80.90
2019-02-14T06:26:30.278Z,82.70
2019-02-14T06:29:18.981Z,84.50
2019-02-14T06:32:05.860Z,84.70
2019-02-14T06:34:46.178Z,85.50
2019-02-14T06:37:33.530Z,86.20
2019-02-14T06:40:01.419Z,87.00
2019-02-14T06:42:29.356Z,87.00
2019-02-14T06:45:17.068Z,87.60
2019-02-14T06:47:44.975Z,88.20
2019-02-14T06:50:13.280Z,89.40
2019-02-14T06:52:41.187Z,90.00
2019-02-14T06:55:28.847Z,90.00
2019-02-14T06:58:09.591Z,90.10
2019-02-14T07:00:57.073Z,90.30
2019-02-14T07:03:37.823Z,90.40
2019-02-14T07:06:25.540Z,90.30
2019-02-14T07:09:06.193Z,90.30
2019-02-14T07:11:53.974Z,90.10
2019-02-14T07:14:37.207Z,90.00
2019-02-14T07:17:24.706Z,89.80
2019-02-14T07:20:06.439Z,90.20
2019-02-14T07:22:55.099Z,89.80
2019-02-14T07:25:35.376Z,89.70
2019-02-14T07:28:15.932Z,89.40
2019-02-14T07:31:03.447Z,89.10
2019-02-14T07:33:45.165Z,88.70
2019-02-14T07:36:32.738Z,89.10
2019-02-14T07:39:13.082Z,89.20
2019-02-14T07:42:02.874Z,89.20
2019-02-14T07:44:44.271Z,88.70
2019-02-14T07:47:31.677Z,89.00
2019-02-14T07:50:32.399Z,88.30
2019-02-14T07:53:19.732Z,88.30
2019-02-14T07:56:00.156Z,87.80
2019-02-14T07:58:41.009Z,88.60
2019-02-14T08:01:29.074Z,87.70
2019-02-14T08:04:17.018Z,88.00
2019-02-14T08:06:45.457Z,88.20
2019-02-14T08:09:13.321Z,88.60
2019-02-14T08:11:41.285Z,88.40
2019-02-14T08:14:22.819Z,88.30
2019-02-14T08:16:50.686Z,88.10
2019-02-14T08:19:18.539Z,88.90
2019-02-14T08:22:05.917Z,89.20
2019-02-14T08:24:46.221Z,89.10
2019-02-14T08:27:33.574Z,87.50
2019-02-14T08:30:14.336Z,85.60
2019-02-14T08:33:01.877Z,86.30
2019-02-14T08:35:42.049Z,86.30
2019-02-14T08:38:30.554Z,86.70
2019-02-14T08:40:58.481Z,86.50
2019-02-14T08:43:46.396Z,84.00
2019-02-14T08:46:26.895Z,82.40
2019-02-14T08:49:08.138Z,80.40
2019-02-14T08:51:55.497Z,80.30
2019-02-14T08:54:36.096Z,79.10
2019-02-14T08:57:23.482Z,79.50
2019-02-14T09:00:07.164Z,80.70
2019-02-14T09:02:54.946Z,80.40
2019-02-14T09:05:35.254Z,79.80
2019-02-14T09:08:03.173Z,79.20
2019-02-14T09:10:44.870Z,78.30
2019-02-14T09:13:33.333Z,78.50
2019-02-14T09:16:18.269Z,78.20
2019-02-14T09:18:46.247Z,78.50
2019-02-14T09:21:33.913Z,78.00
2019-02-14T09:24:21.279Z,77.10
2019-02-14T09:27:02.182Z,76.80
2019-02-14T09:29:49.723Z,75.10
2019-02-14T09:32:30.394Z,74.60
2019-02-14T09:35:19.710Z,73.00
2019-02-14T09:38:03.330Z,71.70
2019-02-14T09:40:43.623Z,71.20
2019-02-14T09:43:31.465Z,70.30
2019-02-14T09:46:12.553Z,69.00
2019-02-14T09:49:00.312Z,69.60
2019-02-14T09:51:41.568Z,69.50
2019-02-14T09:54:29.222Z,68.90
2019-02-14T09:57:13.269Z,68.20
2019-02-14T09:59:53.726Z,68.50
2019-02-14T10:02:41.078Z,66.50
2019-02-14T10:05:21.734Z,66.70
2019-02-14T10:08:12.965Z,64.40
2019-02-14T10:11:11.816Z,63.30
2019-02-14T10:13:59.369Z,62.90
2019-02-14T10:16:40.884Z,62.40
2019-02-14T10:19:22.324Z,61.20
2019-02-14T10:22:03.385Z,60.30
2019-02-14T10:24:52.566Z,60.30
2019-02-14T10:27:21.362Z,60.20
2019-02-14T10:30:03.569Z,64.30
2019-02-14T10:32:32.427Z,57.80
2019-02-14T10:35:00.355Z,60.30
2019-02-14T10:37:48.323Z,56.00
2019-02-14T10:40:29.506Z,55.00
2019-02-14T10:43:17.469Z,54.90
2019-02-14T10:45:58.665Z,53.60
2019-02-14T10:48:47.324Z,55.10
2019-02-14T10:51:28.171Z,53.30
2019-02-14T10:54:15.603Z,52.20
2019-02-14T10:56:55.882Z,51.00
2019-02-14T10:59:43.559Z,51.10
2019-02-14T11:02:24.363Z,51.00
2019-02-14T11:05:13.222Z,50.60
2019-02-14T11:07:53.468Z,49.20
2019-02-14T11:10:33.519Z,48.90
2019-02-14T11:13:15.839Z,48.10
2019-02-14T11:15:56.733Z,47.80
2019-02-14T11:18:44.722Z,47.30
2019-02-14T11:21:37.583Z,47.30
2019-02-14T11:24:25.274Z,46.90
2019-02-14T11:27:07.465Z,45.90
2019-02-14T11:29:54.875Z,45.00
2019-02-14T11:32:36.742Z,44.80
2019-02-14T11:35:24.125Z,44.80
2019-02-14T11:37:52.292Z,44.00
2019-02-14T11:40:20.501Z,43.80
2019-02-14T11:42:48.436Z,44.20
2019-02-14T11:45:35.913Z,44.60
2019-02-14T11:48:17.564Z,43.90
2019-02-14T11:51:05.029Z,43.50
2019-02-14T11:53:45.940Z,42.70
2019-02-14T11:56:27.662Z,41.40
2019-02-14T11:59:07.738Z,41.10
2019-02-14T12:01:55.182Z,41.50
2019-02-14T12:04:38.411Z,42.30
2019-02-14T12:07:18.993Z,41.10
2019-02-14T12:10:13.169Z,40.60
2019-02-14T12:12:54.476Z,39.20
2019-02-14T12:15:35.434Z,40.20
2019-02-14T12:18:03.393Z,40.30
2019-02-14T12:20:48.014Z,40.10
2019-02-14T12:23:17.196Z,40.30
2019-02-14T12:25:57.308Z,40.10
2019-02-14T12:28:44.876Z,39.10
2019-02-14T12:31:32.159Z,39.80
2019-02-14T12:34:20.789Z,38.80
2019-02-14T12:36:48.767Z,38.50
2019-02-14T12:39:16.623Z,37.10
2019-02-14T12:41:44.589Z,36.50
2019-02-14T12:44:33.051Z,36.90
2019-02-14T12:47:14.996Z,38.40
2019-02-14T12:50:04.016Z,37.40
2019-02-14T12:52:44.885Z,37.80
2019-02-14T12:55:25.155Z,37.50
2019-02-14T12:57:54.254Z,37.40
2019-02-14T13:00:22.241Z,37.60
2019-02-14T13:03:04.180Z,37.50
2019-02-14T13:05:51.699Z,37.20
2019-02-14T13:08:32.367Z,36.90
2019-02-14T13:11:13.491Z,36.70
2019-02-14T13:14:01.131Z,37.40
2019-02-14T13:16:48.148Z,39.10
2019-02-14T13:19:29.663Z,37.50
2019-02-14T13:21:57.928Z,39.00
2019-02-14T13:24:25.921Z,38.50
2019-02-14T13:26:55.315Z,37.40
2019-02-14T13:29:23.439Z,37.30
2019-02-14T13:31:51.422Z,37.30
2019-02-14T13:34:19.293Z,37.50
2019-02-14T13:36:47.299Z,37.00
2019-02-14T13:39:15.266Z,36.90
2019-02-14T13:41:43.246Z,37.10
2019-02-14T13:44:25.180Z,37.10
2019-02-14T13:46:53.200Z,37.50
2019-02-14T13:49:34.849Z,37.90
2019-02-14T13:52:02.964Z,37.70
2019-02-14T13:54:30.897Z,37.70
2019-02-14T13:56:59.015Z,37.70
2019-02-14T13:59:26.967Z,37.90
2019-02-14T14:01:54.927Z,38.40
2019-02-14T14:04:25.073Z,38.10
2019-02-14T14:06:53.137Z,37.50
2019-02-14T14:09:21.077Z,37.50
2019-02-14T14:11:49.909Z,37.10
2019-02-14T14:14:37.655Z,36.20
2019-02-14T14:17:05.771Z,36.40
2019-02-14T14:19:54.151Z,36.30
2019-02-14T14:22:35.286Z,36.00
2019-02-14T14:25:03.836Z,35.50
2019-02-14T14:27:45.622Z,35.40
2019-02-14T14:30:33.374Z,36.00
2019-02-14T14:33:13.869Z,36.40
2019-02-14T14:36:01.868Z,35.60
2019-02-14T14:38:29.903Z,35.70
2019-02-14T14:41:17.614Z,35.40
2019-02-14T14:44:20.418Z,35.00
2019-02-14T14:47:05.683Z,35.40
2019-02-14T14:49:53.059Z,35.40
2019-02-14T14:52:31.893Z,35.30
2019-02-14T14:55:19.288Z,36.10
2019-02-14T14:58:00.540Z,36.40
2019-02-14T15:00:49.093Z,37.50
2019-02-14T15:03:29.692Z,37.50
2019-02-14T15:06:17.294Z,36.80
2019-02-14T15:08:58.047Z,36.40
2019-02-14T15:11:46.093Z,37.00
2019-02-14T15:14:27.289Z,37.40
2019-02-14T15:17:09.095Z,37.30
2019-02-14T15:19:56.716Z,37.00
2019-02-14T15:22:37.472Z,36.50
2019-02-14T15:25:08.357Z,36.50
2019-02-14T15:27:48.667Z,36.40
2019-02-14T15:30:17.854Z,36.10
2019-02-14T15:32:59.682Z,36.50
2019-02-14T15:35:47.149Z,36.80
2019-02-14T15:38:27.842Z,36.80
2019-02-14T15:41:15.384Z,36.90
2019-02-14T15:43:56.124Z,38.70
2019-02-14T15:46:43.599Z,38.50
2019-02-14T15:49:25.416Z,37.50
2019-02-14T15:52:13.295Z,36.50
2019-02-14T15:54:41.236Z,34.10
2019-02-14T15:57:09.474Z,32.80
2019-02-14T15:59:56.901Z,31.80
2019-02-14T16:02:38.058Z,31.80
2019-02-14T16:05:06.316Z,32.20
2019-02-14T16:07:47.602Z,33.30
2019-02-14T16:10:32.824Z,34.60
2019-02-14T16:13:00.960Z,37.20
2019-02-14T16:15:30.867Z,38.30
2019-02-14T16:18:18.108Z,39.10
2019-02-14T16:21:07.425Z,40.70
2019-02-14T16:23:55.430Z,41.40
2019-02-14T16:26:24.313Z,43.00
2019-02-14T16:29:04.494Z,43.20
2019-02-14T16:31:52.025Z,43.30
2019-02-14T16:34:32.948Z,43.60
2019-02-14T16:37:20.569Z,44.90
2019-02-14T16:40:00.763Z,46.10
2019-02-14T16:42:48.222Z,45.70
2019-02-14T16:45:29.302Z,46.20
2019-02-14T16:48:10.130Z,48.00
2019-02-14T16:50:57.639Z,48.40
2019-02-14T16:53:38.463Z,49.10
2019-02-14T16:56:26.993Z,46.70
2019-02-14T16:59:07.737Z,47.40
2019-02-14T17:01:56.216Z,49.50
2019-02-14T17:04:37.880Z,49.90
2019-02-14T17:07:06.157Z,48.00
2019-02-14T17:09:51.936Z,48.20
2019-02-14T17:12:39.607Z,49.00
2019-02-14T17:15:20.488Z,49.30
2019-02-14T17:17:49.211Z,50.20
2019-02-14T17:20:31.384Z,50.70
2019-02-14T17:23:19.111Z,51.50
2019-02-14T17:25:47.108Z,50.90
2019-02-14T17:28:15.281Z,51.60
2019-02-14T17:31:02.835Z,51.30
2019-02-14T17:33:43.201Z,51.70
2019-02-14T17:36:30.729Z,51.70
2019-02-14T17:39:15.483Z,51.90
2019-02-14T17:41:43.821Z,51.50
2019-02-14T17:44:12.870Z,52.70
2019-02-14T17:46:54.644Z,52.20
2019-02-14T17:49:22.629Z,51.20
2019-02-14T17:51:50.654Z,51.60
2019-02-14T17:54:18.919Z,51.40
2019-02-14T17:56:59.014Z,51.50
2019-02-14T17:59:46.553Z,51.70
2019-02-14T18:02:28.716Z,51.80
2019-02-14T18:05:16.241Z,52.00
2019-02-14T18:07:58.274Z,52.00
2019-02-14T18:10:54.698Z,52.30
2019-02-14T18:13:49.801Z,52.50
2019-02-14T18:16:37.237Z,52.80
2019-02-14T18:19:18.389Z,53.40
2019-02-14T18:22:05.962Z,53.30
2019-02-14T18:24:46.180Z,53.40
2019-02-14T18:27:33.744Z,53.30
2019-02-14T18:30:14.362Z,53.70
2019-02-14T18:32:54.514Z,54.00
2019-02-14T18:35:42.249Z,53.80
2019-02-14T18:38:22.829Z,54.50
2019-02-14T18:41:10.311Z,53.90
2019-02-14T18:43:51.406Z,54.90
2019-02-14T18:46:32.432Z,54.70
2019-02-14T18:49:19.958Z,55.30
2019-02-14T18:51:48.006Z,55.90
2019-02-14T18:54:35.586Z,54.60
2019-02-14T18:57:16.681Z,55.50
2019-02-14T19:03:15.302Z,56.30
2019-02-14T19:06:03.173Z,56.50
2019-02-14T19:08:44.226Z,55.50
2019-02-14T19:11:15.291Z,56.30
2019-02-14T19:14:19.053Z,56.30
2019-02-14T19:17:06.573Z,56.10
2019-02-14T19:19:47.130Z,55.80
2019-02-14T19:22:34.802Z,56.30
2019-02-14T19:25:15.037Z,56.10
2019-02-14T19:28:02.847Z,56.50
2019-02-14T19:30:43.420Z,56.10
2019-02-14T19:33:11.657Z,57.30
2019-02-14T19:35:39.731Z,58.10
2019-02-14T19:38:20.055Z,57.10
2019-02-14T19:41:07.596Z,55.00
2019-02-14T19:43:51.935Z,55.10
2019-02-14T19:46:33.094Z,54.70
2019-02-14T19:49:20.813Z,55.30
2019-02-14T19:51:48.991Z,55.30
2019-02-14T19:54:17.210Z,55.30
2019-02-14T19:56:45.321Z,55.20
2019-02-14T19:59:13.431Z,54.70
2019-02-14T20:01:41.645Z,54.60
2019-02-14T20:04:09.929Z,55.00
2019-02-14T20:06:38.327Z,56.00
2019-02-14T20:12:10.134Z,56.20
2019-02-14T20:14:38.452Z,56.60
2019-02-14T20:17:06.883Z,56.90
2019-02-14T20:19:35.170Z,57.10
2019-02-14T20:22:03.305Z,56.80
2019-02-14T20:24:43.677Z,56.60
2019-02-14T20:27:31.591Z,56.80
2019-02-14T20:30:11.910Z,56.00
2019-02-14T20:33:04.958Z,56.80
2019-02-14T20:35:42.933Z,56.80
2019-02-14T20:38:30.756Z,56.70
2019-02-14T20:41:13.232Z,56.10
2019-02-14T20:43:41.524Z,56.50
2019-02-14T20:46:24.387Z,56.50
2019-02-14T20:49:12.329Z,56.30
2019-02-14T20:51:54.824Z,56.40
2019-02-14T20:54:43.163Z,58.20
2019-02-14T20:57:23.723Z,59.90
2019-02-14T20:59:51.979Z,59.20
2019-02-14T21:02:33.441Z,61.30
2019-02-14T21:05:21.152Z,62.50
2019-02-14T21:07:49.404Z,63.20
2019-02-14T21:10:17.828Z,63.10
2019-02-14T21:12:46.088Z,63.40
2019-02-14T21:15:33.669Z,63.20
2019-02-14T21:18:01.971Z,64.00
2019-02-14T21:20:42.284Z,64.10
2019-02-14T21:23:10.522Z,63.90
2019-02-14T21:25:38.848Z,63.30
2019-02-14T21:28:08.162Z,63.20
2019-02-14T21:30:52.459Z,62.80
2019-02-14T21:33:20.766Z,62.90
2019-02-14T21:35:49.149Z,63.40
2019-02-14T21:38:17.578Z,63.50
2019-02-14T21:40:59.289Z,65.00
2019-02-14T21:43:46.902Z,65.30
2019-02-14T21:46:27.171Z,67.00
2019-02-14T21:49:15.770Z,66.50
2019-02-14T21:52:00.388Z,67.20
2019-02-14T21:54:48.013Z,68.40
2019-02-14T21:57:35.489Z,69.10
2019-02-14T22:00:19.459Z,68.10
2019-02-14T22:03:07.239Z,68.00
2019-02-14T22:05:47.977Z,66.80
2019-02-14T22:08:36.725Z,66.60
2019-02-14T22:11:17.520Z,66.80
2019-02-14T22:13:45.540Z,67.80
2019-02-14T22:16:29.500Z,69.20
2019-02-14T22:19:17.197Z,71.40
2019-02-14T22:21:58.799Z,73.00
2019-02-14T22:24:46.369Z,74.00
2019-02-14T22:27:28.524Z,73.30
2019-02-14T22:30:16.394Z,73.90
2019-02-14T22:32:57.406Z,72.40
2019-02-14T22:35:44.942Z,71.90
2019-02-14T22:38:12.885Z,70.60
2019-02-14T22:41:00.342Z,70.40
2019-02-14T22:43:41.313Z,70.10
2019-02-14T22:46:31.742Z,70.70
2019-02-14T22:49:12.427Z,71.60
2019-02-14T22:51:52.617Z,70.80
2019-02-14T22:54:40.072Z,70.80
2019-02-14T22:57:21.999Z,71.60
2019-02-14T22:59:50.949Z,71.70
2019-02-14T23:02:32.432Z,72.10
2019-02-14T23:05:01.475Z,72.60
2019-02-14T23:07:29.488Z,73.30
2019-02-14T23:09:57.463Z,73.80
2019-02-14T23:12:25.518Z,74.00
2019-02-14T23:15:06.752Z,74.00
2019-02-14T23:17:48.006Z,73.50
2019-02-14T23:20:35.773Z,73.40
2019-02-14T23:23:17.216Z,72.90
2019-02-14T23:26:06.059Z,72.60
2019-02-14T23:28:46.878Z,72.70
2019-02-14T23:31:34.685Z,73.00
2019-02-14T23:34:16.682Z,72.60
2019-02-14T23:36:44.714Z,73.40
2019-02-14T23:39:12.632Z,73.50
2019-02-14T23:42:00.058Z,73.20
2019-02-14T23:44:28.039Z,73.60
2019-02-14T23:47:15.524Z,72.80
2019-02-14T23:49:57.145Z,72.40
2019-02-14T23:52:25.233Z,71.60
2019-02-14T23:54:53.161Z,72.00
2019-02-14T23:57:34.887Z,73.40
